sensor_id;sensor_type;location;lat;lon;timestamp;pressure;altitude;pressure_sealevel;temperature;humidity
16094;BME280;8151;47.824;12.092;2024-02-15T00:01:31;96821.41;;;8.52;55.75
16094;BME280;8151;47.824;12.092;2024-02-15T00:03:59;96819.59;;;8.52;55.88
16094;BME280;8151;47.824;12.092;2024-02-15T00:06:28;96823.22;;;8.51;55.56
16094;BME280;8151;47.824;12.092;2024-02-15T00:08:56;96817.09;;;8.51;55.61
16094;BME280;8151;47.824;12.092;2024-02-15T00:11:26;96817.09;;;8.51;55.61
16094;BME280;8151;47.824;12.092;2024-02-15T00:13:54;96818.91;;;8.50;55.52
16094;BME280;8151;47.824;12.092;2024-02-15T00:16:23;96812.13;;;8.47;55.54
16094;BME280;8151;47.824;12.092;2024-02-15T00:18:52;96821.81;;;8.47;56.07
16094;BME280;8151;47.824;12.092;2024-02-15T00:21:22;96827.09;;;8.47;55.91
16094;BME280;8151;47.824;12.092;2024-02-15T00:23:51;96822.81;;;8.46;55.80
16094;BME280;8151;47.824;12.092;2024-02-15T00:26:21;96823.63;;;8.46;55.91
16094;BME280;8151;47.824;12.092;2024-02-15T00:28:51;96811.44;;;8.45;55.92
16094;BME280;8151;47.824;12.092;2024-02-15T00:31:20;96821.13;;;8.45;55.49
16094;BME280;8151;47.824;12.092;2024-02-15T00:33:48;96818.50;;;8.45;55.53
16094;BME280;8151;47.824;12.092;2024-02-15T00:36:17;96815.16;;;8.43;55.84
16094;BME280;8151;47.824;12.092;2024-02-15T00:38:46;96816.16;;;8.42;55.58
16094;BME280;8151;47.824;12.092;2024-02-15T00:41:15;96817.97;;;8.41;55.47
16094;BME280;8151;47.824;12.092;2024-02-15T00:43:43;96814.59;;;8.39;55.75
16094;BME280;8151;47.824;12.092;2024-02-15T00:46:13;96821.53;;;8.40;55.46
16094;BME280;8151;47.824;12.092;2024-02-15T00:48:41;96805.03;;;8.38;55.33
16094;BME280;8151;47.824;12.092;2024-02-15T00:51:10;96816.53;;;8.37;55.37
16094;BME280;8151;47.824;12.092;2024-02-15T00:53:38;96806.97;;;8.36;55.30
16094;BME280;8151;47.824;12.092;2024-02-15T00:56:07;96815.72;;;8.37;55.36
16094;BME280;8151;47.824;12.092;2024-02-15T00:58:35;96810.31;;;8.38;55.34
16094;BME280;8151;47.824;12.092;2024-02-15T01:01:04;96827.63;;;8.41;55.25
16094;BME280;8151;47.824;12.092;2024-02-15T01:03:33;96822.34;;;8.41;55.53
16094;BME280;8151;47.824;12.092;2024-02-15T01:06:03;96822.34;;;8.41;55.06
16094;BME280;8151;47.824;12.092;2024-02-15T01:08:33;96819.72;;;8.41;55.41
16094;BME280;8151;47.824;12.092;2024-02-15T01:11:05;96812.69;;;8.41;55.24
16094;BME280;8151;47.824;12.092;2024-02-15T01:13:34;96816.16;;;8.42;55.45
16094;BME280;8151;47.824;12.092;2024-02-15T01:16:03;96815.16;;;8.43;55.33
16094;BME280;8151;47.824;12.092;2024-02-15T01:18:33;96820.31;;;8.44;55.34
16094;BME280;8151;47.824;12.092;2024-02-15T01:21:02;96822.81;;;8.46;55.21
16094;BME280;8151;47.824;12.092;2024-02-15T01:23:31;96818.34;;;8.46;55.13
16094;BME280;8151;47.824;12.092;2024-02-15T01:26:00;96817.41;;;8.47;55.35
16094;BME280;8151;47.824;12.092;2024-02-15T01:28:28;96810.44;;;8.46;55.06
16094;BME280;8151;47.824;12.092;2024-02-15T01:30:57;96809.47;;;8.47;55.28
16094;BME280;8151;47.824;12.092;2024-02-15T01:33:25;96801.41;;;8.49;55.08
16094;BME280;8151;47.824;12.092;2024-02-15T01:35:56;96799.63;;;8.50;54.87
16094;BME280;8151;47.824;12.092;2024-02-15T01:38:24;96803.91;;;8.51;55.25
16094;BME280;8151;47.824;12.092;2024-02-15T01:40:53;96806.53;;;8.51;54.91
16094;BME280;8151;47.824;12.092;2024-02-15T01:43:21;96801.25;;;8.51;55.27
16094;BME280;8151;47.824;12.092;2024-02-15T01:45:50;96793.50;;;8.49;55.33
16094;BME280;8151;47.824;12.092;2024-02-15T01:48:18;96791.03;;;8.47;55.27
16094;BME280;8151;47.824;12.092;2024-02-15T01:50:47;96793.66;;;8.47;55.02
16094;BME280;8151;47.824;12.092;2024-02-15T01:53:17;96789.34;;;8.46;55.00
16094;BME280;8151;47.824;12.092;2024-02-15T01:55:46;96786.03;;;8.44;55.33
16094;BME280;8151;47.824;12.092;2024-02-15T01:58:15;96787.25;;;8.40;55.36
16094;BME280;8151;47.824;12.092;2024-02-15T02:00:43;96787.41;;;8.39;55.24
16094;BME280;8151;47.824;12.092;2024-02-15T02:03:14;96790.84;;;8.39;55.36
16094;BME280;8151;47.824;12.092;2024-02-15T02:05:43;96781.44;;;8.37;55.41
16094;BME280;8151;47.824;12.092;2024-02-15T02:08:12;96777.97;;;8.36;55.35
16094;BME280;8151;47.824;12.092;2024-02-15T02:10:41;96776.31;;;8.35;55.50
16094;BME280;8151;47.824;12.092;2024-02-15T02:13:10;96771.19;;;8.34;55.60
16094;BME280;8151;47.824;12.092;2024-02-15T02:15:38;96769.53;;;8.33;55.59
16094;BME280;8151;47.824;12.092;2024-02-15T02:18:07;96768.00;;;8.30;55.54
16094;BME280;8151;47.824;12.092;2024-02-15T02:20:37;96775.91;;;8.30;55.52
16094;BME280;8151;47.824;12.092;2024-02-15T02:23:08;96774.09;;;8.31;55.76
16094;BME280;8151;47.824;12.092;2024-02-15T02:25:39;96764.38;;;8.31;55.72
16094;BME280;8151;47.824;12.092;2024-02-15T02:28:09;96770.47;;;8.32;55.54
16094;BME280;8151;47.824;12.092;2024-02-15T02:30:38;96780.19;;;8.31;56.06
16094;BME280;8151;47.824;12.092;2024-02-15T02:33:11;96770.47;;;8.32;55.67
16094;BME280;8151;47.824;12.092;2024-02-15T02:35:46;96781.88;;;8.32;55.61
16094;BME280;8151;47.824;12.092;2024-02-15T02:38:15;96783.66;;;8.32;55.75
16094;BME280;8151;47.824;12.092;2024-02-15T02:40:45;96777.56;;;8.31;56.11
16094;BME280;8151;47.824;12.092;2024-02-15T02:43:14;96775.91;;;8.30;55.65
16094;BME280;8151;47.824;12.092;2024-02-15T02:45:42;96776.75;;;8.31;55.97
16094;BME280;8151;47.824;12.092;2024-02-15T02:48:12;96781.19;;;8.30;55.93
16094;BME280;8151;47.824;12.092;2024-02-15T02:50:41;96773.28;;;8.30;55.98
16094;BME280;8151;47.824;12.092;2024-02-15T02:53:10;96778.38;;;8.32;55.65
16094;BME280;8151;47.824;12.092;2024-02-15T02:55:40;96766.88;;;8.33;55.76
16094;BME280;8151;47.824;12.092;2024-02-15T02:58:11;96779.09;;;8.34;55.50
16094;BME280;8151;47.824;12.092;2024-02-15T03:00:40;96781.44;;;8.37;55.73
16094;BME280;8151;47.824;12.092;2024-02-15T03:03:09;96783.25;;;8.36;56.02
16094;BME280;8151;47.824;12.092;2024-02-15T03:05:38;96777.97;;;8.36;55.65
16094;BME280;8151;47.824;12.092;2024-02-15T03:08:08;96770.88;;;8.37;55.79
16094;BME280;8151;47.824;12.092;2024-02-15T03:10:37;96769.06;;;8.37;55.90
16094;BME280;8151;47.824;12.092;2024-02-15T03:13:05;96770.88;;;8.37;55.85
16094;BME280;8151;47.824;12.092;2024-02-15T03:15:37;96772.69;;;8.36;55.50
16094;BME280;8151;47.824;12.092;2024-02-15T03:18:06;96775.47;;;8.35;55.94
16094;BME280;8151;47.824;12.092;2024-02-15T03:20:37;96770.47;;;8.32;55.93
16094;BME280;8151;47.824;12.092;2024-02-15T03:23:06;96777.88;;;8.28;56.18
16094;BME280;8151;47.824;12.092;2024-02-15T03:25:34;96774.69;;;8.24;56.10
16094;BME280;8151;47.824;12.092;2024-02-15T03:28:05;96773.88;;;8.24;56.46
16094;BME280;8151;47.824;12.092;2024-02-15T03:30:33;96769.56;;;8.23;56.35
16094;BME280;8151;47.824;12.092;2024-02-15T03:33:04;96772.06;;;8.24;56.16
16094;BME280;8151;47.824;12.092;2024-02-15T03:35:34;96780.78;;;8.25;56.11
16094;BME280;8151;47.824;12.092;2024-02-15T03:38:03;96771.22;;;8.24;56.24
16094;BME280;8151;47.824;12.092;2024-02-15T03:40:31;96770.38;;;8.23;56.17
16094;BME280;8151;47.824;12.092;2024-02-15T03:43:00;96767.75;;;8.23;56.21
16094;BME280;8151;47.824;12.092;2024-02-15T03:45:34;96775.50;;;8.25;56.41
16094;BME280;8151;47.824;12.092;2024-02-15T03:48:04;96775.50;;;8.25;56.50
16094;BME280;8151;47.824;12.092;2024-02-15T03:50:34;96782.47;;;8.26;56.58
16094;BME280;8151;47.824;12.092;2024-02-15T03:53:03;96775.38;;;8.26;56.61
16094;BME280;8151;47.824;12.092;2024-02-15T03:55:35;96779.66;;;8.27;56.66
16094;BME280;8151;47.824;12.092;2024-02-15T03:58:04;96784.09;;;8.27;56.62
16094;BME280;8151;47.824;12.092;2024-02-15T04:00:32;96786.88;;;8.25;56.52
16094;BME280;8151;47.824;12.092;2024-02-15T04:03:00;96786.06;;;8.25;56.64
16094;BME280;8151;47.824;12.092;2024-02-15T04:05:30;96786.19;;;8.23;56.75
16094;BME280;8151;47.824;12.092;2024-02-15T04:08:00;96791.59;;;8.22;56.83
16094;BME280;8151;47.824;12.092;2024-02-15T04:10:30;96791.91;;;8.19;56.75
16094;BME280;8151;47.824;12.092;2024-02-15T04:12:58;96786.78;;;8.17;56.92
16094;BME280;8151;47.824;12.092;2024-02-15T04:15:26;96786.91;;;8.16;56.96
16094;BME280;8151;47.824;12.092;2024-02-15T04:17:54;96785.41;;;8.13;57.07
16094;BME280;8151;47.824;12.092;2024-02-15T04:20:23;96781.25;;;8.11;57.03
16094;BME280;8151;47.824;12.092;2024-02-15T04:22:53;96786.53;;;8.11;57.18
16094;BME280;8151;47.824;12.092;2024-02-15T04:25:23;96779.56;;;8.09;57.38
16094;BME280;8151;47.824;12.092;2024-02-15T04:27:55;96786.94;;;8.06;57.37
16094;BME280;8151;47.824;12.092;2024-02-15T04:30:25;96784.28;;;8.06;57.17
16094;BME280;8151;47.824;12.092;2024-02-15T04:32:53;96780.84;;;8.05;57.42
16094;BME280;8151;47.824;12.092;2024-02-15T04:35:22;96778.34;;;8.04;57.36
16094;BME280;8151;47.824;12.092;2024-02-15T04:37:51;96783.75;;;8.02;57.43
16094;BME280;8151;47.824;12.092;2024-02-15T04:40:21;96778.47;;;8.02;57.59
16094;BME280;8151;47.824;12.092;2024-02-15T04:42:50;96779.47;;;8.01;57.64
16094;BME280;8151;47.824;12.092;2024-02-15T04:45:19;96783.91;;;8.01;57.47
16094;BME280;8151;47.824;12.092;2024-02-15T04:47:49;96784.03;;;7.99;57.67
16094;BME280;8151;47.824;12.092;2024-02-15T04:50:20;96787.63;;;7.98;57.72
16094;BME280;8151;47.824;12.092;2024-02-15T04:52:48;96786.00;;;7.97;57.77
16094;BME280;8151;47.824;12.092;2024-02-15T04:55:17;96785.44;;;7.94;57.74
16094;BME280;8151;47.824;12.092;2024-02-15T04:57:47;96786.25;;;7.94;57.88
16094;BME280;8151;47.824;12.092;2024-02-15T05:00:16;96786.25;;;7.94;57.97
16094;BME280;8151;47.824;12.092;2024-02-15T05:02:48;96792.34;;;7.95;57.78
16094;BME280;8151;47.824;12.092;2024-02-15T05:05:17;96788.19;;;7.92;57.79
16094;BME280;8151;47.824;12.092;2024-02-15T05:07:46;96785.72;;;7.91;58.01
16094;BME280;8151;47.824;12.092;2024-02-15T05:10:16;96782.25;;;7.90;57.82
16094;BME280;8151;47.824;12.092;2024-02-15T05:12:46;96780.59;;;7.89;57.96
16094;BME280;8151;47.824;12.092;2024-02-15T05:15:16;96778.25;;;7.86;58.20
16094;BME280;8151;47.824;12.092;2024-02-15T05:17:46;96774.91;;;7.84;58.10
16094;BME280;8151;47.824;12.092;2024-02-15T05:20:15;96781.13;;;7.83;58.07
16094;BME280;8151;47.824;12.092;2024-02-15T05:22:44;96785.03;;;7.79;58.18
16094;BME280;8151;47.824;12.092;2024-02-15T05:25:17;96790.31;;;7.79;58.32
16094;BME280;8151;47.824;12.092;2024-02-15T05:27:53;96787.97;;;7.76;58.33
16094;BME280;8151;47.824;12.092;2024-02-15T05:30:24;96784.63;;;7.74;58.46
16094;BME280;8151;47.824;12.092;2024-02-15T05:32:53;96780.31;;;7.73;58.14
16094;BME280;8151;47.824;12.092;2024-02-15T05:35:22;96781.31;;;7.72;58.25
16094;BME280;8151;47.824;12.092;2024-02-15T05:37:51;96778.94;;;7.68;58.13
16094;BME280;8151;47.824;12.092;2024-02-15T05:40:21;96781.59;;;7.68;58.24
16094;BME280;8151;47.824;12.092;2024-02-15T05:42:56;96780.06;;;7.66;58.83
16094;BME280;8151;47.824;12.092;2024-02-15T05:45:30;96784.66;;;7.64;58.50
16094;BME280;8151;47.824;12.092;2024-02-15T05:48:02;96777.84;;;7.61;58.50
16094;BME280;8151;47.824;12.092;2024-02-15T05:50:33;96786.72;;;7.60;58.48
16094;BME280;8151;47.824;12.092;2024-02-15T05:53:02;96776.31;;;7.59;58.43
16094;BME280;8151;47.824;12.092;2024-02-15T05:55:31;96783.41;;;7.58;58.51
16094;BME280;8151;47.824;12.092;2024-02-15T05:58:03;96794.88;;;7.57;58.49
16094;BME280;8151;47.824;12.092;2024-02-15T06:00:31;96792.56;;;7.54;58.58
16094;BME280;8151;47.824;12.092;2024-02-15T06:03:02;96791.81;;;7.52;58.68
16094;BME280;8151;47.824;12.092;2024-02-15T06:05:30;96795.44;;;7.51;58.61
16094;BME280;8151;47.824;12.092;2024-02-15T06:07:59;96781.59;;;7.49;58.78
16094;BME280;8151;47.824;12.092;2024-02-15T06:10:28;96792.25;;;7.47;58.71
16094;BME280;8151;47.824;12.092;2024-02-15T06:12:57;96790.88;;;7.43;58.94
16094;BME280;8151;47.824;12.092;2024-02-15T06:15:27;96778.81;;;7.41;58.97
16094;BME280;8151;47.824;12.092;2024-02-15T06:17:57;96780.91;;;7.37;59.21
16094;BME280;8151;47.824;12.092;2024-02-15T06:20:26;96796.00;;;7.35;59.07
16094;BME280;8151;47.824;12.092;2024-02-15T06:22:57;96784.22;;;7.29;59.38
16094;BME280;8151;47.824;12.092;2024-02-15T06:25:25;96790.72;;;7.25;59.59
16094;BME280;8151;47.824;12.092;2024-02-15T06:27:53;96792.50;;;7.25;59.56
16094;BME280;8151;47.824;12.092;2024-02-15T06:30:28;96788.34;;;7.22;59.68
16094;BME280;8151;47.824;12.092;2024-02-15T06:33:29;96803.59;;;7.19;59.59
16094;BME280;8151;47.824;12.092;2024-02-15T06:36:15;96790.72;;;7.16;59.82
16094;BME280;8151;47.824;12.092;2024-02-15T06:39:01;96783.66;;;7.16;59.51
16094;BME280;8151;47.824;12.092;2024-02-15T06:41:47;96790.56;;;7.17;59.53
16094;BME280;8151;47.824;12.092;2024-02-15T06:44:15;96787.09;;;7.17;59.85
16094;BME280;8151;47.824;12.092;2024-02-15T06:46:45;96789.88;;;7.15;59.93
16094;BME280;8151;47.824;12.092;2024-02-15T06:49:14;96788.22;;;7.14;59.93
16094;BME280;8151;47.824;12.092;2024-02-15T06:51:42;96797.22;;;7.12;60.30
16094;BME280;8151;47.824;12.092;2024-02-15T06:54:15;96791.09;;;7.11;60.00
16094;BME280;8151;47.824;12.092;2024-02-15T06:56:45;96801.63;;;7.11;60.38
16094;BME280;8151;47.824;12.092;2024-02-15T06:59:14;96799.97;;;7.10;60.12
16094;BME280;8151;47.824;12.092;2024-02-15T07:01:45;96797.34;;;7.10;60.62
16094;BME280;8151;47.824;12.092;2024-02-15T07:04:13;96802.50;;;7.12;60.74
16094;BME280;8151;47.824;12.092;2024-02-15T07:06:42;96801.63;;;7.11;60.59
16094;BME280;8151;47.824;12.092;2024-02-15T07:09:12;96805.81;;;7.14;60.53
16094;BME280;8151;47.824;12.092;2024-02-15T07:11:42;96801.09;;;7.17;60.62
16094;BME280;8151;47.824;12.092;2024-02-15T07:14:13;96804.16;;;7.22;60.43
16094;BME280;8151;47.824;12.092;2024-02-15T07:16:47;96800.28;;;7.26;60.68
16094;BME280;8151;47.824;12.092;2024-02-15T07:19:16;96802.63;;;7.29;60.66
16094;BME280;8151;47.824;12.092;2024-02-15T07:21:45;96815.13;;;7.37;60.50
16094;BME280;8151;47.824;12.092;2024-02-15T07:24:14;96807.63;;;7.42;60.58
16094;BME280;8151;47.824;12.092;2024-02-15T07:26:42;96803.34;;;7.51;60.47
16094;BME280;8151;47.824;12.092;2024-02-15T07:29:12;96801.66;;;7.60;60.48
16094;BME280;8151;47.824;12.092;2024-02-15T07:31:42;96805.56;;;7.65;60.29
16094;BME280;8151;47.824;12.092;2024-02-15T07:34:12;96800.84;;;7.69;60.20
16094;BME280;8151;47.824;12.092;2024-02-15T07:36:42;96808.34;;;7.74;60.39
16094;BME280;8151;47.824;12.092;2024-02-15T07:39:12;96801.69;;;7.79;60.33
16094;BME280;8151;47.824;12.092;2024-02-15T07:41:51;96803.75;;;7.85;60.42
16094;BME280;8151;47.824;12.092;2024-02-15T07:44:19;96798.06;;;7.90;60.25
16094;BME280;8151;47.824;12.092;2024-02-15T07:46:49;96799.31;;;7.96;60.43
16094;BME280;8151;47.824;12.092;2024-02-15T07:49:19;96798.88;;;8.00;60.14
16094;BME280;8151;47.824;12.092;2024-02-15T07:51:49;96799.41;;;8.04;60.14
16094;BME280;8151;47.824;12.092;2024-02-15T07:54:20;96801.78;;;8.07;60.01
16094;BME280;8151;47.824;12.092;2024-02-15T07:56:49;96800.53;;;8.11;60.51
16094;BME280;8151;47.824;12.092;2024-02-15T07:59:19;96790.53;;;8.15;60.33
16094;BME280;8151;47.824;12.092;2024-02-15T08:01:47;96786.78;;;8.17;60.30
16094;BME280;8151;47.824;12.092;2024-02-15T08:04:19;96788.13;;;8.21;60.15
16094;BME280;8151;47.824;12.092;2024-02-15T08:06:48;96791.31;;;8.25;60.35
16094;BME280;8151;47.824;12.092;2024-02-15T08:09:18;96789.94;;;8.31;60.10
16094;BME280;8151;47.824;12.092;2024-02-15T08:11:49;96785.88;;;8.36;60.04
16094;BME280;8151;47.824;12.092;2024-02-15T08:14:17;96792.53;;;8.40;59.91
16094;BME280;8151;47.824;12.092;2024-02-15T08:16:47;96789.66;;;8.43;60.20
16094;BME280;8151;47.824;12.092;2024-02-15T08:19:16;96789.75;;;8.52;60.15
16094;BME280;8151;47.824;12.092;2024-02-15T08:21:46;96781.94;;;8.60;59.73
16094;BME280;8151;47.824;12.092;2024-02-15T08:24:18;96776.75;;;8.68;59.89
16094;BME280;8151;47.824;12.092;2024-02-15T08:26:46;96773.38;;;8.76;59.87
16094;BME280;8151;47.824;12.092;2024-02-15T08:29:15;96781.84;;;8.79;59.69
16094;BME280;8151;47.824;12.092;2024-02-15T08:31:43;96781.13;;;8.87;59.44
16094;BME280;8151;47.824;12.092;2024-02-15T08:34:12;96783.16;;;8.93;59.54
16094;BME280;8151;47.824;12.092;2024-02-15T08:36:41;96779.63;;;9.02;59.74
16094;BME280;8151;47.824;12.092;2024-02-15T08:39:11;96778.22;;;9.08;59.63
16094;BME280;8151;47.824;12.092;2024-02-15T08:41:40;96777.06;;;9.11;59.39
16094;BME280;8151;47.824;12.092;2024-02-15T08:44:08;96760.13;;;9.13;59.28
16094;BME280;8151;47.824;12.092;2024-02-15T08:46:39;96765.78;;;9.18;59.50
16094;BME280;8151;47.824;12.092;2024-02-15T08:49:07;96760.56;;;9.26;58.75
16094;BME280;8151;47.824;12.092;2024-02-15T08:51:36;96765.78;;;9.36;58.80
16094;BME280;8151;47.824;12.092;2024-02-15T08:54:04;96772.44;;;9.40;58.47
16094;BME280;8151;47.824;12.092;2024-02-15T08:56:35;96759.44;;;9.47;58.65
16094;BME280;8151;47.824;12.092;2024-02-15T08:59:03;96763.97;;;9.55;58.36
16094;BME280;8151;47.824;12.092;2024-02-15T09:01:32;96764.19;;;9.61;58.74
16094;BME280;8151;47.824;12.092;2024-02-15T09:04:01;96762.59;;;9.69;58.27
16094;BME280;8151;47.824;12.092;2024-02-15T09:06:29;96756.88;;;9.73;57.91
16094;BME280;8151;47.824;12.092;2024-02-15T09:08:58;96747.66;;;9.77;58.68
16094;BME280;8151;47.824;12.092;2024-02-15T09:11:28;96751.31;;;9.84;58.08
16094;BME280;8151;47.824;12.092;2024-02-15T09:13:58;96748.75;;;9.93;58.16
16094;BME280;8151;47.824;12.092;2024-02-15T09:16:27;96748.81;;;10.01;58.15
16094;BME280;8151;47.824;12.092;2024-02-15T09:18:56;96752.66;;;10.07;57.85
16094;BME280;8151;47.824;12.092;2024-02-15T09:21:28;96745.59;;;10.15;57.94
16094;BME280;8151;47.824;12.092;2024-02-15T09:23:57;96740.84;;;10.27;57.55
16094;BME280;8151;47.824;12.092;2024-02-15T09:26:25;96735.47;;;10.37;57.45
16094;BME280;8151;47.824;12.092;2024-02-15T09:28:54;96735.69;;;10.43;57.12
16094;BME280;8151;47.824;12.092;2024-02-15T09:31:25;96734.91;;;10.51;57.31
16094;BME280;8151;47.824;12.092;2024-02-15T09:33:53;96729.50;;;10.61;57.31
16094;BME280;8151;47.824;12.092;2024-02-15T09:36:22;96728.53;;;10.70;56.82
16094;BME280;8151;47.824;12.092;2024-02-15T09:38:50;96736.16;;;10.81;56.72
16094;BME280;8151;47.824;12.092;2024-02-15T09:41:19;96733.88;;;10.87;56.33
16094;BME280;8151;47.824;12.092;2024-02-15T09:43:48;96731.25;;;10.95;56.46
16094;BME280;8151;47.824;12.092;2024-02-15T09:46:16;96727.78;;;11.02;56.30
16094;BME280;8151;47.824;12.092;2024-02-15T09:48:50;96724.69;;;11.07;56.14
16094;BME280;8151;47.824;12.092;2024-02-15T09:51:20;96717.91;;;11.13;56.44
16094;BME280;8151;47.824;12.092;2024-02-15T09:53:48;96718.72;;;11.21;56.06
16094;BME280;8151;47.824;12.092;2024-02-15T09:56:17;96720.41;;;11.31;56.15
16094;BME280;8151;47.824;12.092;2024-02-15T09:58:47;96716.44;;;11.35;55.67
16094;BME280;8151;47.824;12.092;2024-02-15T10:01:16;96708.47;;;11.43;55.75
16094;BME280;8151;47.824;12.092;2024-02-15T10:03:49;96704.03;;;11.52;55.72
16094;BME280;8151;47.824;12.092;2024-02-15T10:06:19;96702.34;;;11.59;55.40
16094;BME280;8151;47.824;12.092;2024-02-15T10:08:50;96704.81;;;11.69;55.56
16094;BME280;8151;47.824;12.092;2024-02-15T10:11:19;96706.47;;;11.78;55.48
16094;BME280;8151;47.824;12.092;2024-02-15T10:13:48;96699.38;;;11.87;55.33
16094;BME280;8151;47.824;12.092;2024-02-15T10:16:17;96687.75;;;11.96;55.28
16094;BME280;8151;47.824;12.092;2024-02-15T10:18:46;96697.53;;;12.04;55.04
16094;BME280;8151;47.824;12.092;2024-02-15T10:21:26;96684.59;;;12.09;54.42
16094;BME280;8151;47.824;12.092;2024-02-15T10:24:06;96684.91;;;12.14;54.42
16094;BME280;8151;47.824;12.092;2024-02-15T10:26:36;96682.22;;;12.22;54.47
16094;BME280;8151;47.824;12.092;2024-02-15T10:29:06;96679.22;;;12.33;54.21
16094;BME280;8151;47.824;12.092;2024-02-15T10:31:38;96678.00;;;12.44;54.15
16094;BME280;8151;47.824;12.092;2024-02-15T10:34:07;96671.81;;;12.52;53.92
16094;BME280;8151;47.824;12.092;2024-02-15T10:36:37;96672.47;;;12.62;53.71
16094;BME280;8151;47.824;12.092;2024-02-15T10:39:13;96664.47;;;12.70;53.32
16094;BME280;8151;47.824;12.092;2024-02-15T10:41:46;96657.44;;;12.77;53.48
16094;BME280;8151;47.824;12.092;2024-02-15T10:44:19;96662.72;;;12.86;53.07
16094;BME280;8151;47.824;12.092;2024-02-15T10:46:49;96649.53;;;12.92;53.10
16094;BME280;8151;47.824;12.092;2024-02-15T10:49:19;96643.66;;;13.05;53.12
16094;BME280;8151;47.824;12.092;2024-02-15T10:51:55;96635.47;;;13.15;52.69
16094;BME280;8151;47.824;12.092;2024-02-15T10:54:41;96641.03;;;13.20;52.02
16094;BME280;8151;47.824;12.092;2024-02-15T10:57:11;96633.84;;;13.29;52.38
16094;BME280;8151;47.824;12.092;2024-02-15T10:59:54;96616.66;;;13.39;52.28
16094;BME280;8151;47.824;12.092;2024-02-15T11:02:28;96616.88;;;13.53;52.23
16094;BME280;8151;47.824;12.092;2024-02-15T11:05:03;96612.78;;;13.65;52.14
16094;BME280;8151;47.824;12.092;2024-02-15T11:07:39;96614.81;;;13.78;51.86
16094;BME280;8151;47.824;12.092;2024-02-15T11:10:08;96608.22;;;13.89;51.96
16094;BME280;8151;47.824;12.092;2024-02-15T11:12:38;96614.72;;;14.01;51.90
16094;BME280;8151;47.824;12.092;2024-02-15T11:15:40;96600.97;;;14.12;51.12
16094;BME280;8151;47.824;12.092;2024-02-15T11:18:09;96600.88;;;14.21;51.40
16094;BME280;8151;47.824;12.092;2024-02-15T11:20:47;96603.06;;;14.32;50.92
16094;BME280;8151;47.824;12.092;2024-02-15T11:23:27;96600.28;;;14.40;51.26
16094;BME280;8151;47.824;12.092;2024-02-15T11:26:04;96593.66;;;14.51;51.16
16094;BME280;8151;47.824;12.092;2024-02-15T11:28:38;96588.44;;;14.57;51.12
16094;BME280;8151;47.824;12.092;2024-02-15T11:31:52;96577.88;;;14.64;50.50
16094;BME280;8151;47.824;12.092;2024-02-15T11:34:43;96575.44;;;14.69;50.64
16094;BME280;8151;47.824;12.092;2024-02-15T11:37:51;96564.78;;;14.69;50.67
16094;BME280;8151;47.824;12.092;2024-02-15T11:40:23;96564.44;;;14.72;51.15
16094;BME280;8151;47.824;12.092;2024-02-15T11:42:53;96554.69;;;14.80;51.26
16094;BME280;8151;47.824;12.092;2024-02-15T11:45:21;96559.88;;;14.88;50.80
16094;BME280;8151;47.824;12.092;2024-02-15T11:47:52;96554.41;;;14.96;50.86
16094;BME280;8151;47.824;12.092;2024-02-15T11:50:22;96553.91;;;15.07;50.93
16094;BME280;8151;47.824;12.092;2024-02-15T11:52:51;96542.31;;;15.22;50.67
16094;BME280;8151;47.824;12.092;2024-02-15T11:55:22;96536.28;;;15.34;50.50
16094;BME280;8151;47.824;12.092;2024-02-15T11:57:57;96533.69;;;15.41;50.13
16094;BME280;8151;47.824;12.092;2024-02-15T12:00:31;96529.00;;;15.50;50.17
16094;BME280;8151;47.824;12.092;2024-02-15T12:03:17;96523.75;;;15.63;50.40
16094;BME280;8151;47.824;12.092;2024-02-15T12:06:04;96521.38;;;15.75;50.17
16094;BME280;8151;47.824;12.092;2024-02-15T12:08:52;96515.66;;;15.78;50.19
16094;BME280;8151;47.824;12.092;2024-02-15T12:11:40;96506.44;;;15.81;50.15
16094;BME280;8151;47.824;12.092;2024-02-15T12:14:26;96505.22;;;15.83;50.19
16094;BME280;8151;47.824;12.092;2024-02-15T12:17:13;96496.81;;;15.86;50.16
16094;BME280;8151;47.824;12.092;2024-02-15T12:20:00;96490.25;;;15.82;50.28
16094;BME280;8151;47.824;12.092;2024-02-15T12:22:36;96488.81;;;15.86;50.05
16094;BME280;8151;47.824;12.092;2024-02-15T12:25:08;96489.03;;;15.91;50.20
16094;BME280;8151;47.824;12.092;2024-02-15T12:27:44;96479.41;;;15.97;49.91
16094;BME280;8151;47.824;12.092;2024-02-15T12:30:14;96489.94;;;16.05;49.78
16094;BME280;8151;47.824;12.092;2024-02-15T12:32:47;96473.31;;;16.10;49.61
16094;BME280;8151;47.824;12.092;2024-02-15T12:35:19;96467.78;;;16.11;49.39
16094;BME280;8151;47.824;12.092;2024-02-15T12:38:01;96465.72;;;16.13;49.54
16094;BME280;8151;47.824;12.092;2024-02-15T12:40:33;96467.78;;;16.18;49.72
16094;BME280;8151;47.824;12.092;2024-02-15T12:43:04;96460.19;;;16.28;49.61
16094;BME280;8151;47.824;12.092;2024-02-15T12:45:36;96453.03;;;16.36;49.27
16094;BME280;8151;47.824;12.092;2024-02-15T12:48:05;96457.97;;;16.39;49.10
16094;BME280;8151;47.824;12.092;2024-02-15T12:50:34;96446.25;;;16.40;49.30
16094;BME280;8151;47.824;12.092;2024-02-15T12:53:03;96448.53;;;16.43;49.40
16094;BME280;8151;47.824;12.092;2024-02-15T12:55:34;96445.06;;;16.42;49.29
16094;BME280;8151;47.824;12.092;2024-02-15T12:58:06;96440.31;;;16.38;49.56
16094;BME280;8151;47.824;12.092;2024-02-15T13:00:36;96440.31;;;16.38;49.49
16094;BME280;8151;47.824;12.092;2024-02-15T13:03:08;96431.47;;;16.44;49.32
16094;BME280;8151;47.824;12.092;2024-02-15T13:05:39;96437.03;;;16.49;49.36
16094;BME280;8151;47.824;12.092;2024-02-15T13:08:08;96429.66;;;16.51;49.29
16094;BME280;8151;47.824;12.092;2024-02-15T13:10:42;96421.44;;;16.52;49.19
16094;BME280;8151;47.824;12.092;2024-02-15T13:13:13;96419.78;;;16.51;49.04
16094;BME280;8151;47.824;12.092;2024-02-15T13:15:43;96417.34;;;16.50;49.32
16094;BME280;8151;47.824;12.092;2024-02-15T13:18:13;96417.34;;;16.50;49.06
16094;BME280;8151;47.824;12.092;2024-02-15T13:20:42;96418.34;;;16.49;49.13
16094;BME280;8151;47.824;12.092;2024-02-15T13:23:11;96412.59;;;16.45;48.97
16094;BME280;8151;47.824;12.092;2024-02-15T13:25:46;96412.78;;;16.44;49.27
16094;BME280;8151;47.824;12.092;2024-02-15T13:28:17;96416.72;;;16.48;48.95